Canefield Airport

Fair, hazy and breezy
32oC (90oF)

Fair, hazy and breezy


Winds: East south easterly @ 09kts / 17km/h gusting 21kts / 39km/h

Humidity: 51%

Barometric Pressure: 1015 mb

Accumulated Rainfall for May: 33.7 mm

Updated: 15:00 local time (19:00 UTC)

Douglas-Charles Airport

Partly cloudy and hazy
30oC (86oF)

Partly cloudy and hazy


Winds: East south easterly @ 09kts / 17km/h

Humidity: 65%

Barometric Pressure: 1017 mb

Accumulated Rainfall for May: 136.9 mm

Updated: 15:00 local time (19:00 UTC)

Satellite Imagery

Satellite Imagery
Click image for larger view. (Source: National Hurricane Center).

Aviation Routine Report (METAR)

Douglas-Charles: METAR TDPD 241900Z 11009KT 9999 SCT019 30/23 Q1017=
Canefield: METAR TDCF 241900Z 12009G21KT 9999 FEW024 32/20 Q1015=